Gloria Glens, Ohio
Current Conditions -  °F | °C
As of 11:15 AM on Tuesday 21 Oct 2014 (Local Time) from KBJJ Reporting Station
Light Rain Light Rain  
Wind Chill: 52°   Ceiling: 1200
Heat Index: 52°   Visibility: 10mi
Dew Point: 46°   Wind: 10mph
Humidity: 80%   Direction: 320°NW
Pressure: 29.94"   Gusts: NA
Location:  41.0673°N, 81.9012°W
Report Text: KBJJ 211515Z AUTO 32009KT 10SM -RA BKN012 BKN019 OVC049 11/08 A2994 RMK AO2 RAB03 P0000 T01110078 TSNO
Loading
Personal Weather Stations






























Interactive Weather Map
Tropical Storm Tracking
New forecast layout! Learn more

10-Day Weather Forecast

Advertisements
Track Severe Weather on mobile